sensor_id;sensor_type;location;lat;lon;timestamp;pressure;altitude;pressure_sealevel;temperature;humidity
48810;BME280;40070;47.322;18.784;2022-12-24T00:00:09;996.97;;;6.33;79.62
48810;BME280;40070;47.322;18.784;2022-12-24T00:02:13;997.00;;;5.67;81.11
48810;BME280;40070;47.322;18.784;2022-12-24T00:04:15;996.89;;;5.74;82.00
48810;BME280;40070;47.322;18.784;2022-12-24T00:06:19;996.92;;;5.77;81.53
48810;BME280;40070;47.322;18.784;2022-12-24T00:08:21;996.87;;;5.84;81.54
48810;BME280;40070;47.322;18.784;2022-12-24T00:10:24;996.88;;;6.21;80.43
48810;BME280;40070;47.322;18.784;2022-12-24T00:12:26;996.86;;;6.33;79.68
48810;BME280;40070;47.322;18.784;2022-12-24T00:14:29;996.71;;;6.36;78.99
48810;BME280;40070;47.322;18.784;2022-12-24T00:16:31;996.64;;;6.21;79.80
48810;BME280;40070;47.322;18.784;2022-12-24T00:18:33;996.69;;;6.31;79.84
48810;BME280;40070;47.322;18.784;2022-12-24T00:20:36;996.66;;;6.10;79.91
48810;BME280;40070;47.322;18.784;2022-12-24T00:22:38;996.62;;;6.07;80.39
48810;BME280;40070;47.322;18.784;2022-12-24T00:24:40;996.67;;;6.06;80.35
48810;BME280;40070;47.322;18.784;2022-12-24T00:26:43;996.72;;;6.11;80.29
48810;BME280;40070;47.322;18.784;2022-12-24T00:28:45;996.78;;;5.79;81.20
48810;BME280;40070;47.322;18.784;2022-12-24T00:30:47;996.87;;;5.86;81.69
48810;BME280;40070;47.322;18.784;2022-12-24T00:32:50;997.00;;;6.04;80.71
48810;BME280;40070;47.322;18.784;2022-12-24T00:34:52;997.11;;;5.89;81.22
48810;BME280;40070;47.322;18.784;2022-12-24T00:36:54;997.22;;;5.96;81.64
48810;BME280;40070;47.322;18.784;2022-12-24T00:38:57;997.53;;;5.53;82.64
48810;BME280;40070;47.322;18.784;2022-12-24T00:41:00;997.69;;;5.45;83.82
48810;BME280;40070;47.322;18.784;2022-12-24T00:43:02;997.74;;;5.68;83.38
48810;BME280;40070;47.322;18.784;2022-12-24T00:45:05;997.74;;;5.69;83.17
48810;BME280;40070;47.322;18.784;2022-12-24T00:47:07;997.65;;;5.82;82.55
48810;BME280;40070;47.322;18.784;2022-12-24T00:49:10;997.59;;;5.75;82.82
48810;BME280;40070;47.322;18.784;2022-12-24T00:51:13;997.59;;;6.35;81.28
48810;BME280;40070;47.322;18.784;2022-12-24T00:53:16;997.55;;;6.25;80.64
48810;BME280;40070;47.322;18.784;2022-12-24T00:55:18;997.48;;;6.23;80.64
48810;BME280;40070;47.322;18.784;2022-12-24T00:57:21;997.47;;;5.89;81.45
48810;BME280;40070;47.322;18.784;2022-12-24T00:59:23;997.38;;;5.81;82.07
48810;BME280;40070;47.322;18.784;2022-12-24T01:01:25;997.22;;;6.13;81.78
48810;BME280;40070;47.322;18.784;2022-12-24T01:03:28;997.19;;;6.30;80.58
48810;BME280;40070;47.322;18.784;2022-12-24T01:05:30;996.98;;;6.17;80.85
48810;BME280;40070;47.322;18.784;2022-12-24T01:07:33;996.75;;;6.29;80.65
48810;BME280;40070;47.322;18.784;2022-12-24T01:09:35;996.86;;;6.55;79.55
48810;BME280;40070;47.322;18.784;2022-12-24T01:11:37;996.78;;;6.35;79.85
48810;BME280;40070;47.322;18.784;2022-12-24T01:13:40;996.63;;;6.41;79.59
48810;BME280;40070;47.322;18.784;2022-12-24T01:15:42;996.61;;;6.64;78.88
48810;BME280;40070;47.322;18.784;2022-12-24T01:17:45;996.62;;;6.51;78.60
48810;BME280;40070;47.322;18.784;2022-12-24T01:19:47;996.80;;;6.57;78.27
48810;BME280;40070;47.322;18.784;2022-12-24T01:21:49;996.56;;;6.54;78.76
48810;BME280;40070;47.322;18.784;2022-12-24T01:23:52;996.50;;;6.38;78.71
48810;BME280;40070;47.322;18.784;2022-12-24T01:25:54;996.66;;;6.49;79.03
48810;BME280;40070;47.322;18.784;2022-12-24T01:27:56;996.74;;;6.39;78.94
48810;BME280;40070;47.322;18.784;2022-12-24T01:29:59;996.72;;;6.00;80.40
48810;BME280;40070;47.322;18.784;2022-12-24T01:32:02;996.63;;;6.11;80.78
48810;BME280;40070;47.322;18.784;2022-12-24T01:34:04;996.71;;;6.33;79.97
48810;BME280;40070;47.322;18.784;2022-12-24T01:36:06;996.60;;;6.33;79.55
48810;BME280;40070;47.322;18.784;2022-12-24T01:38:09;996.66;;;6.49;79.37
48810;BME280;40070;47.322;18.784;2022-12-24T01:40:15;996.69;;;6.63;78.90
48810;BME280;40070;47.322;18.784;2022-12-24T01:42:18;996.70;;;6.78;78.18
48810;BME280;40070;47.322;18.784;2022-12-24T01:44:23;996.76;;;6.78;78.07
48810;BME280;40070;47.322;18.784;2022-12-24T01:46:26;996.76;;;6.95;77.57
48810;BME280;40070;47.322;18.784;2022-12-24T01:48:35;996.82;;;6.94;77.14
48810;BME280;40070;47.322;18.784;2022-12-24T01:50:38;996.84;;;6.96;77.20
48810;BME280;40070;47.322;18.784;2022-12-24T01:52:41;996.72;;;6.94;77.04
48810;BME280;40070;47.322;18.784;2022-12-24T01:54:46;996.64;;;6.86;77.25
48810;BME280;40070;47.322;18.784;2022-12-24T01:57:12;996.84;;;6.79;77.07
48810;BME280;40070;47.322;18.784;2022-12-24T01:59:04;996.77;;;6.48;78.72
48810;BME280;40070;47.322;18.784;2022-12-24T02:01:07;996.66;;;6.69;78.12
48810;BME280;40070;47.322;18.784;2022-12-24T02:03:10;996.70;;;6.74;77.54
48810;BME280;40070;47.322;18.784;2022-12-24T02:05:14;996.84;;;6.33;78.39
48810;BME280;40070;47.322;18.784;2022-12-24T02:07:17;996.53;;;6.30;79.68
48810;BME280;40070;47.322;18.784;2022-12-24T02:09:20;996.85;;;6.28;79.80
48810;BME280;40070;47.322;18.784;2022-12-24T02:11:22;997.02;;;5.88;81.26
48810;BME280;40070;47.322;18.784;2022-12-24T02:13:25;997.14;;;6.16;80.87
48810;BME280;40070;47.322;18.784;2022-12-24T02:15:27;997.35;;;6.33;80.38
48810;BME280;40070;47.322;18.784;2022-12-24T02:17:47;997.46;;;6.52;79.65
48810;BME280;40070;47.322;18.784;2022-12-24T02:22:16;997.32;;;6.43;79.57
48810;BME280;40070;47.322;18.784;2022-12-24T02:24:31;997.14;;;6.58;79.06
48810;BME280;40070;47.322;18.784;2022-12-24T02:33:45;996.79;;;6.47;79.54
48810;BME280;40070;47.322;18.784;2022-12-24T02:35:55;996.70;;;6.63;78.80
48810;BME280;40070;47.322;18.784;2022-12-24T02:38:01;996.64;;;6.68;78.33
48810;BME280;40070;47.322;18.784;2022-12-24T02:40:16;996.66;;;6.80;77.92
48810;BME280;40070;47.322;18.784;2022-12-24T02:42:21;996.50;;;6.92;77.57
48810;BME280;40070;47.322;18.784;2022-12-24T02:44:26;996.57;;;6.96;77.18
48810;BME280;40070;47.322;18.784;2022-12-24T02:46:29;996.60;;;6.85;77.54
48810;BME280;40070;47.322;18.784;2022-12-24T02:48:33;996.69;;;6.86;77.30
48810;BME280;40070;47.322;18.784;2022-12-24T02:50:36;996.69;;;6.71;77.69
48810;BME280;40070;47.322;18.784;2022-12-24T02:52:40;996.72;;;6.85;77.52
48810;BME280;40070;47.322;18.784;2022-12-24T02:54:42;996.72;;;6.70;77.58
48810;BME280;40070;47.322;18.784;2022-12-24T02:59:14;996.77;;;7.00;76.92
48810;BME280;40070;47.322;18.784;2022-12-24T03:05:50;996.79;;;6.69;77.19
48810;BME280;40070;47.322;18.784;2022-12-24T03:08:06;996.86;;;6.37;78.43
48810;BME280;40070;47.322;18.784;2022-12-24T03:10:21;996.86;;;6.38;78.89
48810;BME280;40070;47.322;18.784;2022-12-24T03:12:48;996.89;;;6.34;78.50
48810;BME280;40070;47.322;18.784;2022-12-24T03:14:39;996.97;;;6.38;78.58
48810;BME280;40070;47.322;18.784;2022-12-24T03:16:42;997.02;;;6.24;79.08
48810;BME280;40070;47.322;18.784;2022-12-24T03:18:47;997.03;;;6.09;79.99
48810;BME280;40070;47.322;18.784;2022-12-24T03:20:55;997.02;;;6.16;79.73
48810;BME280;40070;47.322;18.784;2022-12-24T03:22:59;997.03;;;6.26;79.31
48810;BME280;40070;47.322;18.784;2022-12-24T03:25:01;997.03;;;6.40;78.61
48810;BME280;40070;47.322;18.784;2022-12-24T03:27:04;996.98;;;6.56;77.95
48810;BME280;40070;47.322;18.784;2022-12-24T03:29:08;997.02;;;6.66;77.28
48810;BME280;40070;47.322;18.784;2022-12-24T03:31:10;996.96;;;6.66;77.08
48810;BME280;40070;47.322;18.784;2022-12-24T03:33:13;996.88;;;6.70;77.09
48810;BME280;40070;47.322;18.784;2022-12-24T03:35:15;996.90;;;6.64;77.30
48810;BME280;40070;47.322;18.784;2022-12-24T03:37:18;996.88;;;6.75;77.37
48810;BME280;40070;47.322;18.784;2022-12-24T03:39:21;996.81;;;6.80;77.23
48810;BME280;40070;47.322;18.784;2022-12-24T03:41:23;996.98;;;6.88;77.26
48810;BME280;40070;47.322;18.784;2022-12-24T03:43:25;997.07;;;6.55;77.85
48810;BME280;40070;47.322;18.784;2022-12-24T03:45:28;997.06;;;6.64;78.08
48810;BME280;40070;47.322;18.784;2022-12-24T03:47:30;997.05;;;6.82;77.41
48810;BME280;40070;47.322;18.784;2022-12-24T03:49:33;997.09;;;6.79;76.99
48810;BME280;40070;47.322;18.784;2022-12-24T03:51:35;997.13;;;6.64;77.89
48810;BME280;40070;47.322;18.784;2022-12-24T03:53:37;997.17;;;6.78;77.37
48810;BME280;40070;47.322;18.784;2022-12-24T03:55:40;997.25;;;6.79;76.98
48810;BME280;40070;47.322;18.784;2022-12-24T03:57:42;997.25;;;6.79;76.96
48810;BME280;40070;47.322;18.784;2022-12-24T03:59:44;997.27;;;6.90;76.72
48810;BME280;40070;47.322;18.784;2022-12-24T04:01:47;997.26;;;6.95;76.62
48810;BME280;40070;47.322;18.784;2022-12-24T04:03:49;997.24;;;6.98;76.17
48810;BME280;40070;47.322;18.784;2022-12-24T04:06:04;997.21;;;7.02;76.08
48810;BME280;40070;47.322;18.784;2022-12-24T04:08:07;997.23;;;6.91;76.13
48810;BME280;40070;47.322;18.784;2022-12-24T04:10:09;997.21;;;6.95;76.15
48810;BME280;40070;47.322;18.784;2022-12-24T04:12:12;997.21;;;7.04;75.82
48810;BME280;40070;47.322;18.784;2022-12-24T04:14:15;997.18;;;7.03;75.80
48810;BME280;40070;47.322;18.784;2022-12-24T04:16:17;997.25;;;6.84;76.14
48810;BME280;40070;47.322;18.784;2022-12-24T04:18:19;997.35;;;6.94;76.02
48810;BME280;40070;47.322;18.784;2022-12-24T04:20:22;997.39;;;6.71;76.54
48810;BME280;40070;47.322;18.784;2022-12-24T04:22:24;997.37;;;6.11;78.84
48810;BME280;40070;47.322;18.784;2022-12-24T04:24:26;997.35;;;6.34;78.82
48810;BME280;40070;47.322;18.784;2022-12-24T04:26:29;997.40;;;6.49;79.35
48810;BME280;40070;47.322;18.784;2022-12-24T04:28:31;997.36;;;6.67;79.54
48810;BME280;40070;47.322;18.784;2022-12-24T04:30:34;997.32;;;6.86;79.02
48810;BME280;40070;47.322;18.784;2022-12-24T04:32:36;997.37;;;6.97;78.91
48810;BME280;40070;47.322;18.784;2022-12-24T04:34:39;997.37;;;7.04;78.97
48810;BME280;40070;47.322;18.784;2022-12-24T04:36:41;997.31;;;7.05;79.88
48810;BME280;40070;47.322;18.784;2022-12-24T04:38:44;997.30;;;7.11;80.05
48810;BME280;40070;47.322;18.784;2022-12-24T04:40:46;997.29;;;7.12;80.04
48810;BME280;40070;47.322;18.784;2022-12-24T04:42:49;997.22;;;7.17;80.19
48810;BME280;40070;47.322;18.784;2022-12-24T04:44:51;997.23;;;7.23;79.95
48810;BME280;40070;47.322;18.784;2022-12-24T04:46:53;997.19;;;7.17;79.95
48810;BME280;40070;47.322;18.784;2022-12-24T04:48:56;997.18;;;7.06;78.78
48810;BME280;40070;47.322;18.784;2022-12-24T04:51:01;997.18;;;7.06;79.12
48810;BME280;40070;47.322;18.784;2022-12-24T04:53:04;997.15;;;7.17;77.93
48810;BME280;40070;47.322;18.784;2022-12-24T04:55:06;997.19;;;7.22;76.88
48810;BME280;40070;47.322;18.784;2022-12-24T04:57:09;997.15;;;7.16;76.70
48810;BME280;40070;47.322;18.784;2022-12-24T04:59:11;997.07;;;6.83;77.15
48810;BME280;40070;47.322;18.784;2022-12-24T05:01:15;997.09;;;6.87;77.31
48810;BME280;40070;47.322;18.784;2022-12-24T05:03:18;997.17;;;6.50;78.06
48810;BME280;40070;47.322;18.784;2022-12-24T05:05:21;997.23;;;6.74;77.74
48810;BME280;40070;47.322;18.784;2022-12-24T05:07:23;997.21;;;6.93;76.75
48810;BME280;40070;47.322;18.784;2022-12-24T05:09:25;997.23;;;7.11;76.12
48810;BME280;40070;47.322;18.784;2022-12-24T05:11:28;997.27;;;7.04;75.97
48810;BME280;40070;47.322;18.784;2022-12-24T05:13:31;997.39;;;7.08;75.88
48810;BME280;40070;47.322;18.784;2022-12-24T05:15:33;997.43;;;6.99;76.23
48810;BME280;40070;47.322;18.784;2022-12-24T05:17:36;997.40;;;7.07;76.26
48810;BME280;40070;47.322;18.784;2022-12-24T05:19:38;997.38;;;7.14;76.00
48810;BME280;40070;47.322;18.784;2022-12-24T05:21:40;997.40;;;7.18;75.81
48810;BME280;40070;47.322;18.784;2022-12-24T05:23:43;997.41;;;7.22;75.55
48810;BME280;40070;47.322;18.784;2022-12-24T05:25:45;997.46;;;6.84;76.60
48810;BME280;40070;47.322;18.784;2022-12-24T05:27:48;997.47;;;7.04;76.25
48810;BME280;40070;47.322;18.784;2022-12-24T05:29:50;997.55;;;7.19;75.89
48810;BME280;40070;47.322;18.784;2022-12-24T05:31:52;997.57;;;7.23;75.83
48810;BME280;40070;47.322;18.784;2022-12-24T05:33:55;997.67;;;7.25;75.97
48810;BME280;40070;47.322;18.784;2022-12-24T05:35:57;997.65;;;6.94;76.55
48810;BME280;40070;47.322;18.784;2022-12-24T05:37:59;997.71;;;7.14;76.14
48810;BME280;40070;47.322;18.784;2022-12-24T05:40:02;997.70;;;6.75;77.10
48810;BME280;40070;47.322;18.784;2022-12-24T05:42:04;997.69;;;6.74;77.00
48810;BME280;40070;47.322;18.784;2022-12-24T05:44:07;997.63;;;6.80;77.17
48810;BME280;40070;47.322;18.784;2022-12-24T05:46:10;997.61;;;6.98;76.32
48810;BME280;40070;47.322;18.784;2022-12-24T05:48:12;997.62;;;6.89;76.28
48810;BME280;40070;47.322;18.784;2022-12-24T05:50:15;997.60;;;6.92;75.97
48810;BME280;40070;47.322;18.784;2022-12-24T05:52:17;997.63;;;6.96;75.83
48810;BME280;40070;47.322;18.784;2022-12-24T05:54:19;997.67;;;6.92;75.83
48810;BME280;40070;47.322;18.784;2022-12-24T05:56:22;997.78;;;6.85;75.85
48810;BME280;40070;47.322;18.784;2022-12-24T05:58:25;997.73;;;6.65;76.37
48810;BME280;40070;47.322;18.784;2022-12-24T06:00:27;997.82;;;6.77;76.38
48810;BME280;40070;47.322;18.784;2022-12-24T06:02:29;997.77;;;6.77;76.27
48810;BME280;40070;47.322;18.784;2022-12-24T06:04:32;997.80;;;6.89;76.16
48810;BME280;40070;47.322;18.784;2022-12-24T06:06:34;997.77;;;7.01;75.81
48810;BME280;40070;47.322;18.784;2022-12-24T06:08:37;997.81;;;7.08;75.50
48810;BME280;40070;47.322;18.784;2022-12-24T06:10:39;997.83;;;7.09;75.26
48810;BME280;40070;47.322;18.784;2022-12-24T06:12:42;997.87;;;7.02;75.33
48810;BME280;40070;47.322;18.784;2022-12-24T06:14:44;997.91;;;7.04;75.42
48810;BME280;40070;47.322;18.784;2022-12-24T06:16:46;998.02;;;6.96;75.32
48810;BME280;40070;47.322;18.784;2022-12-24T06:18:49;997.99;;;6.93;75.60
48810;BME280;40070;47.322;18.784;2022-12-24T06:20:52;998.11;;;6.89;75.65
48810;BME280;40070;47.322;18.784;2022-12-24T06:22:54;998.10;;;6.81;75.83
48810;BME280;40070;47.322;18.784;2022-12-24T06:24:57;998.00;;;6.84;75.75
48810;BME280;40070;47.322;18.784;2022-12-24T06:26:59;998.04;;;6.97;75.73
48810;BME280;40070;47.322;18.784;2022-12-24T06:29:02;998.11;;;6.99;75.50
48810;BME280;40070;47.322;18.784;2022-12-24T06:31:04;998.09;;;6.98;75.89
48810;BME280;40070;47.322;18.784;2022-12-24T06:33:07;998.09;;;7.07;76.30
48810;BME280;40070;47.322;18.784;2022-12-24T06:35:09;998.13;;;7.06;76.83
48810;BME280;40070;47.322;18.784;2022-12-24T06:37:12;998.07;;;7.10;77.19
48810;BME280;40070;47.322;18.784;2022-12-24T06:39:14;998.05;;;7.20;77.21
48810;BME280;40070;47.322;18.784;2022-12-24T06:41:17;998.08;;;7.26;76.75
48810;BME280;40070;47.322;18.784;2022-12-24T06:43:20;998.09;;;7.28;76.64
48810;BME280;40070;47.322;18.784;2022-12-24T06:45:22;998.15;;;7.33;76.64
48810;BME280;40070;47.322;18.784;2022-12-24T06:47:24;998.21;;;7.18;77.58
48810;BME280;40070;47.322;18.784;2022-12-24T06:49:27;998.14;;;7.27;77.71
48810;BME280;40070;47.322;18.784;2022-12-24T06:51:29;998.21;;;7.31;77.47
48810;BME280;40070;47.322;18.784;2022-12-24T06:53:32;998.20;;;7.35;77.61
48810;BME280;40070;47.322;18.784;2022-12-24T06:55:34;998.23;;;7.47;77.91
48810;BME280;40070;47.322;18.784;2022-12-24T06:57:36;998.28;;;7.49;78.82
48810;BME280;40070;47.322;18.784;2022-12-24T06:59:39;998.25;;;7.49;79.73
48810;BME280;40070;47.322;18.784;2022-12-24T07:01:41;998.27;;;7.52;79.99
48810;BME280;40070;47.322;18.784;2022-12-24T07:03:43;998.27;;;7.65;79.92
48810;BME280;40070;47.322;18.784;2022-12-24T07:05:46;998.32;;;7.60;80.35
48810;BME280;40070;47.322;18.784;2022-12-24T07:07:48;998.32;;;7.57;80.72
48810;BME280;40070;47.322;18.784;2022-12-24T07:09:51;998.29;;;7.49;81.16
48810;BME280;40070;47.322;18.784;2022-12-24T07:11:53;998.35;;;7.58;81.42
48810;BME280;40070;47.322;18.784;2022-12-24T07:13:55;998.30;;;7.78;81.41
48810;BME280;40070;47.322;18.784;2022-12-24T07:15:58;998.35;;;7.71;82.03
48810;BME280;40070;47.322;18.784;2022-12-24T07:18:01;998.27;;;7.58;82.92
48810;BME280;40070;47.322;18.784;2022-12-24T07:20:04;998.33;;;7.73;82.84
48810;BME280;40070;47.322;18.784;2022-12-24T07:22:06;998.36;;;7.78;82.91
48810;BME280;40070;47.322;18.784;2022-12-24T07:24:09;998.40;;;8.04;82.45
48810;BME280;40070;47.322;18.784;2022-12-24T07:26:11;998.39;;;8.24;81.55
48810;BME280;40070;47.322;18.784;2022-12-24T07:28:13;998.40;;;8.19;81.78
48810;BME280;40070;47.322;18.784;2022-12-24T07:30:16;998.38;;;8.03;82.28
48810;BME280;40070;47.322;18.784;2022-12-24T07:32:18;998.39;;;8.23;82.36
48810;BME280;40070;47.322;18.784;2022-12-24T07:34:21;998.43;;;8.27;82.24
48810;BME280;40070;47.322;18.784;2022-12-24T07:36:23;998.47;;;8.42;81.98
48810;BME280;40070;47.322;18.784;2022-12-24T07:38:25;998.49;;;8.57;81.62
48810;BME280;40070;47.322;18.784;2022-12-24T07:40:28;998.48;;;8.49;81.78
48810;BME280;40070;47.322;18.784;2022-12-24T07:42:30;998.50;;;8.45;82.10
48810;BME280;40070;47.322;18.784;2022-12-24T07:44:33;998.53;;;8.61;81.87
48810;BME280;40070;47.322;18.784;2022-12-24T07:46:35;998.59;;;8.68;81.91
48810;BME280;40070;47.322;18.784;2022-12-24T07:48:38;998.59;;;8.79;81.31
48810;BME280;40070;47.322;18.784;2022-12-24T07:50:40;998.65;;;8.91;81.07
48810;BME280;40070;47.322;18.784;2022-12-24T07:52:43;998.67;;;9.03;80.47
48810;BME280;40070;47.322;18.784;2022-12-24T07:54:45;998.74;;;9.05;80.51
48810;BME280;40070;47.322;18.784;2022-12-24T07:56:48;998.73;;;9.17;79.97
48810;BME280;40070;47.322;18.784;2022-12-24T07:58:50;998.68;;;9.29;79.86
48810;BME280;40070;47.322;18.784;2022-12-24T08:00:56;998.66;;;9.37;79.20
48810;BME280;40070;47.322;18.784;2022-12-24T08:02:59;998.74;;;9.32;79.79
48810;BME280;40070;47.322;18.784;2022-12-24T08:05:01;998.85;;;9.41;79.46
48810;BME280;40070;47.322;18.784;2022-12-24T08:07:04;998.85;;;9.42;80.01
48810;BME280;40070;47.322;18.784;2022-12-24T08:09:07;998.90;;;9.59;79.64
48810;BME280;40070;47.322;18.784;2022-12-24T08:11:11;998.92;;;9.60;79.62
48810;BME280;40070;47.322;18.784;2022-12-24T08:13:14;999.02;;;9.88;78.44
48810;BME280;40070;47.322;18.784;2022-12-24T08:15:16;999.10;;;10.01;77.29
48810;BME280;40070;47.322;18.784;2022-12-24T08:17:19;999.16;;;10.14;76.75
48810;BME280;40070;47.322;18.784;2022-12-24T08:19:21;999.27;;;10.24;75.84
48810;BME280;40070;47.322;18.784;2022-12-24T08:21:23;999.39;;;10.52;74.68
48810;BME280;40070;47.322;18.784;2022-12-24T08:23:26;999.45;;;10.62;74.56
48810;BME280;40070;47.322;18.784;2022-12-24T08:25:28;999.44;;;10.73;74.43
48810;BME280;40070;47.322;18.784;2022-12-24T08:27:30;999.55;;;10.77;72.86
48810;BME280;40070;47.322;18.784;2022-12-24T08:29:33;999.56;;;10.85;71.73
48810;BME280;40070;47.322;18.784;2022-12-24T08:31:35;999.50;;;10.93;72.05
48810;BME280;40070;47.322;18.784;2022-12-24T08:33:38;999.51;;;11.15;71.52
48810;BME280;40070;47.322;18.784;2022-12-24T08:35:40;999.57;;;11.21;71.08
48810;BME280;40070;47.322;18.784;2022-12-24T08:37:42;999.55;;;11.37;70.63
48810;BME280;40070;47.322;18.784;2022-12-24T08:39:45;999.61;;;11.38;70.81
48810;BME280;40070;47.322;18.784;2022-12-24T08:41:47;999.67;;;11.34;70.22
48810;BME280;40070;47.322;18.784;2022-12-24T08:43:49;999.71;;;11.36;70.08
48810;BME280;40070;47.322;18.784;2022-12-24T08:45:52;999.81;;;11.32;70.67
48810;BME280;40070;47.322;18.784;2022-12-24T08:47:54;999.87;;;11.34;70.84
48810;BME280;40070;47.322;18.784;2022-12-24T08:49:57;999.99;;;11.21;71.25
48810;BME280;40070;47.322;18.784;2022-12-24T08:51:59;1000.13;;;11.09;71.52
48810;BME280;40070;47.322;18.784;2022-12-24T08:54:01;1000.17;;;11.19;71.56
48810;BME280;40070;47.322;18.784;2022-12-24T08:56:04;1000.22;;;11.13;71.47
48810;BME280;40070;47.322;18.784;2022-12-24T08:58:07;1000.26;;;11.15;71.71
48810;BME280;40070;47.322;18.784;2022-12-24T09:00:10;1000.24;;;11.16;71.02
48810;BME280;40070;47.322;18.784;2022-12-24T09:02:13;1000.19;;;11.13;71.13
48810;BME280;40070;47.322;18.784;2022-12-24T09:04:15;1000.18;;;11.19;70.24
48810;BME280;40070;47.322;18.784;2022-12-24T09:06:17;1000.20;;;11.18;70.31
48810;BME280;40070;47.322;18.784;2022-12-24T09:08:20;1000.15;;;11.25;70.08
48810;BME280;40070;47.322;18.784;2022-12-24T09:10:22;1000.10;;;11.19;69.53
48810;BME280;40070;47.322;18.784;2022-12-24T09:12:25;1000.06;;;11.30;69.35
48810;BME280;40070;47.322;18.784;2022-12-24T09:14:27;1000.14;;;11.34;69.21
48810;BME280;40070;47.322;18.784;2022-12-24T09:16:29;1000.12;;;11.26;69.62
48810;BME280;40070;47.322;18.784;2022-12-24T09:18:32;1000.16;;;11.25;69.83
48810;BME280;40070;47.322;18.784;2022-12-24T09:20:34;1000.10;;;11.35;69.74
48810;BME280;40070;47.322;18.784;2022-12-24T09:22:37;1000.08;;;11.42;68.97
48810;BME280;40070;47.322;18.784;2022-12-24T09:24:40;1000.09;;;11.59;68.78
48810;BME280;40070;47.322;18.784;2022-12-24T09:26:42;1000.11;;;11.58;68.75
48810;BME280;40070;47.322;18.784;2022-12-24T09:28:45;1000.09;;;11.80;67.94
48810;BME280;40070;47.322;18.784;2022-12-24T09:30:54;1000.14;;;11.86;67.43
48810;BME280;40070;47.322;18.784;2022-12-24T09:32:56;1000.23;;;12.03;66.75
48810;BME280;40070;47.322;18.784;2022-12-24T09:34:59;1000.16;;;12.10;66.49
48810;BME280;40070;47.322;18.784;2022-12-24T09:37:01;1000.11;;;12.25;66.28
48810;BME280;40070;47.322;18.784;2022-12-24T09:39:03;1000.18;;;12.46;64.93
48810;BME280;40070;47.322;18.784;2022-12-24T09:43:24;1000.16;;;12.61;64.76
48810;BME280;40070;47.322;18.784;2022-12-24T09:45:28;1000.16;;;12.66;64.39
48810;BME280;40070;47.322;18.784;2022-12-24T09:48:19;1000.21;;;12.84;63.93
48810;BME280;40070;47.322;18.784;2022-12-24T09:49:47;1000.19;;;13.00;63.50
48810;BME280;40070;47.322;18.784;2022-12-24T09:51:55;1000.28;;;12.88;63.93
48810;BME280;40070;47.322;18.784;2022-12-24T09:54:05;1000.29;;;13.00;63.63
48810;BME280;40070;47.322;18.784;2022-12-24T09:56:30;1000.35;;;13.06;62.29
48810;BME280;40070;47.322;18.784;2022-12-24T09:58:32;1000.43;;;13.10;62.82
48810;BME280;40070;47.322;18.784;2022-12-24T10:00:36;1000.50;;;13.11;63.49
48810;BME280;40070;47.322;18.784;2022-12-24T10:02:38;1000.52;;;13.09;62.83
48810;BME280;40070;47.322;18.784;2022-12-24T10:04:41;1000.56;;;13.04;63.05
48810;BME280;40070;47.322;18.784;2022-12-24T10:06:47;1000.56;;;12.71;64.11
48810;BME280;40070;47.322;18.784;2022-12-24T10:09:09;1000.59;;;13.00;63.77
48810;BME280;40070;47.322;18.784;2022-12-24T10:12:13;1000.57;;;12.79;64.47
48810;BME280;40070;47.322;18.784;2022-12-24T10:16:22;1000.60;;;12.90;63.54
48810;BME280;40070;47.322;18.784;2022-12-24T10:20:53;1000.52;;;12.72;64.27
48810;BME280;40070;47.322;18.784;2022-12-24T10:23:20;1000.53;;;12.72;64.35
48810;BME280;40070;47.322;18.784;2022-12-24T10:25:26;1000.54;;;12.77;64.15
48810;BME280;40070;47.322;18.784;2022-12-24T10:27:32;1000.58;;;12.55;64.05
48810;BME280;40070;47.322;18.784;2022-12-24T10:29:38;1000.54;;;12.65;63.69
48810;BME280;40070;47.322;18.784;2022-12-24T10:34:11;1000.66;;;12.55;63.81
48810;BME280;40070;47.322;18.784;2022-12-24T10:36:17;1000.71;;;12.50;63.82
48810;BME280;40070;47.322;18.784;2022-12-24T10:38:21;1000.74;;;12.43;63.84
48810;BME280;40070;47.322;18.784;2022-12-24T10:40:32;1000.75;;;12.49;63.67
48810;BME280;40070;47.322;18.784;2022-12-24T10:42:37;1000.71;;;12.54;63.24
48810;BME280;40070;47.322;18.784;2022-12-24T10:44:40;1000.73;;;12.51;63.14
48810;BME280;40070;47.322;18.784;2022-12-24T10:46:43;1000.73;;;12.45;63.13
48810;BME280;40070;47.322;18.784;2022-12-24T10:48:51;1000.71;;;12.53;63.02
48810;BME280;40070;47.322;18.784;2022-12-24T10:51:05;1000.71;;;12.42;63.18
48810;BME280;40070;47.322;18.784;2022-12-24T10:53:16;1000.68;;;12.43;62.81
48810;BME280;40070;47.322;18.784;2022-12-24T10:55:21;1000.71;;;12.40;62.35
48810;BME280;40070;47.322;18.784;2022-12-24T10:57:25;1000.75;;;12.52;61.57
48810;BME280;40070;47.322;18.784;2022-12-24T10:59:33;1000.74;;;12.55;61.07
48810;BME280;40070;47.322;18.784;2022-12-24T11:01:46;1000.72;;;12.48;61.04
48810;BME280;40070;47.322;18.784;2022-12-24T11:03:58;1000.75;;;12.40;60.95
48810;BME280;40070;47.322;18.784;2022-12-24T11:06:03;1000.77;;;12.41;61.50
48810;BME280;40070;47.322;18.784;2022-12-24T11:08:13;1000.75;;;12.31;61.96
48810;BME280;40070;47.322;18.784;2022-12-24T11:10:21;1000.76;;;12.35;61.84
48810;BME280;40070;47.322;18.784;2022-12-24T11:12:25;1000.85;;;12.43;61.49
48810;BME280;40070;47.322;18.784;2022-12-24T11:14:30;1000.88;;;12.37;61.92
48810;BME280;40070;47.322;18.784;2022-12-24T11:16:34;1000.94;;;12.35;61.99
48810;BME280;40070;47.322;18.784;2022-12-24T11:18:42;1000.98;;;12.27;62.88
48810;BME280;40070;47.322;18.784;2022-12-24T11:20:48;1000.99;;;12.32;62.36
48810;BME280;40070;47.322;18.784;2022-12-24T11:22:52;1000.98;;;12.19;62.52
48810;BME280;40070;47.322;18.784;2022-12-24T11:27:49;1000.98;;;12.28;62.63
48810;BME280;40070;47.322;18.784;2022-12-24T11:29:36;1001.01;;;12.21;63.18
48810;BME280;40070;47.322;18.784;2022-12-24T11:31:39;1001.01;;;12.32;62.87
48810;BME280;40070;47.322;18.784;2022-12-24T11:33:45;1001.02;;;12.30;62.95
48810;BME280;40070;47.322;18.784;2022-12-24T11:35:50;1001.03;;;12.38;62.77
48810;BME280;40070;47.322;18.784;2022-12-24T11:40:18;1001.10;;;12.34;62.76